Portada
METAR-TAF:

METAR-TAF

Aeroports :

Harriman-and-West Airport

North Adams, Massachusetts, Estats Units d'Amèrica

latitud: 42-41-50N, longitud: 073-10-13W, altitud: 199 m

Observació

L'informe es va fer fa 18 minuts, a les 15:52 UTC
Vent 8 kt del Est
Temperatura 21°C
Humitat 88%
Pressió 1011 hPa
Visibilitat: 16.1 km
Cel ennuvolat a una alçada de 2100 ft
Cel cobert a una alçada de 10000 ft

METAR: KAQW 251552Z AUTO 09008KT 10SM BKN021 OVC100 21/19 A2984 RMK AO2 SLP102 T02060189

Hora: 12:10 (16:10 UTC)


TAF: manca

Observacions i pronòstics meteorològics de més de 4000 aeroports (METAR i TAF).

Les estacions disponibles són els punts grocs i vermells al mapa.

Posi el ratolí al punt desitjat per veure el nom de l'estació.

Feu clic per veure les observacions i els pronòstics meteorològics.

Per canviar el mapa: feu clic els botons verds amb una creu de color negre per apropar; al botó verd amb un guió per allunyar la imatge; o en les fletxes verdes per a mapes adjacents.


METAR-TAF: